createdAt,value
2018-07-28T00:00:25.699Z,24.30
2018-07-28T00:02:29.867Z,24.30
2018-07-28T00:04:33.883Z,24.40
2018-07-28T00:06:38.181Z,25.00
2018-07-28T00:08:42.238Z,25.70
2018-07-28T00:10:46.616Z,26.30
2018-07-28T00:12:50.624Z,26.70
2018-07-28T00:14:54.970Z,26.90
2018-07-28T00:16:59.015Z,26.90
2018-07-28T00:19:03.389Z,26.80
2018-07-28T00:21:07.475Z,26.50
2018-07-28T00:23:11.477Z,26.00
2018-07-28T00:25:15.438Z,25.70
2018-07-28T00:27:19.476Z,25.40
2018-07-28T00:29:23.775Z,25.30
2018-07-28T00:31:27.859Z,25.10
2018-07-28T00:33:31.952Z,25.00
2018-07-28T00:35:36.147Z,24.80
2018-07-28T00:39:43.802Z,25.30
2018-07-28T00:41:47.970Z,25.90
2018-07-28T00:43:51.986Z,26.40
2018-07-28T00:45:56.268Z,26.70
2018-07-28T00:48:00.282Z,26.40
2018-07-28T00:50:05.169Z,26.30
2018-07-28T00:52:09.207Z,26.50
2018-07-28T00:54:13.254Z,26.20
2018-07-28T00:56:17.320Z,25.80
2018-07-28T00:58:21.706Z,25.40
2018-07-28T01:00:25.768Z,24.90
2018-07-28T01:02:30.025Z,24.50
2018-07-28T01:04:34.284Z,24.20
2018-07-28T01:06:38.269Z,23.90
2018-07-28T01:08:42.333Z,23.70
2018-07-28T01:10:46.452Z,23.70
2018-07-28T01:12:50.476Z,24.30
2018-07-28T01:14:54.562Z,25.10
2018-07-28T01:16:58.573Z,25.10
2018-07-28T01:19:03.165Z,24.90
2018-07-28T01:21:07.795Z,24.90
2018-07-28T01:23:11.846Z,25.10
2018-07-28T01:25:15.873Z,24.90
2018-07-28T01:27:19.926Z,24.50
2018-07-28T01:29:24.311Z,24.10
2018-07-28T01:31:28.571Z,23.80
2018-07-28T01:33:32.613Z,23.60
2018-07-28T01:35:36.735Z,23.50
2018-07-28T01:37:40.882Z,23.40
2018-07-28T01:39:44.942Z,23.30
2018-07-28T01:41:48.869Z,23.00
2018-07-28T01:43:53.199Z,23.10
2018-07-28T01:45:57.576Z,23.50
2018-07-28T01:48:01.616Z,23.90
2018-07-28T01:50:06.748Z,24.20
2018-07-28T01:52:14.171Z,24.20
2018-07-28T01:54:18.125Z,24.20
2018-07-28T01:56:22.267Z,24.20
2018-07-28T01:58:26.240Z,23.70
2018-07-28T02:00:30.297Z,23.40
2018-07-28T02:02:34.263Z,23.30
2018-07-28T02:04:38.667Z,23.30
2018-07-28T02:06:42.808Z,23.10
2018-07-28T02:08:46.868Z,22.80
2018-07-28T02:10:50.928Z,22.60
2018-07-28T02:12:54.969Z,22.60
2018-07-28T02:14:58.913Z,22.40
2018-07-28T02:17:02.967Z,22.80
2018-07-28T02:19:06.936Z,23.20
2018-07-28T02:21:11.130Z,23.50
2018-07-28T02:23:15.287Z,23.80
2018-07-28T02:25:19.263Z,24.30
2018-07-28T02:27:23.391Z,24.50
2018-07-28T02:29:27.427Z,24.30
2018-07-28T02:31:31.503Z,24.40
2018-07-28T02:33:35.953Z,24.10
2018-07-28T02:37:43.703Z,23.50
2018-07-28T02:39:47.753Z,23.40
2018-07-28T02:41:51.779Z,23.40
2018-07-28T02:43:55.759Z,23.30
2018-07-28T02:45:59.954Z,23.30
2018-07-28T02:48:04.190Z,23.50
2018-07-28T02:50:08.426Z,24.20
2018-07-28T02:52:12.612Z,24.90
2018-07-28T02:56:20.412Z,25.50
2018-07-28T02:58:24.529Z,25.60
2018-07-28T03:00:28.530Z,25.70
2018-07-28T03:02:32.654Z,25.30
2018-07-28T03:04:36.647Z,25.00
2018-07-28T03:06:40.687Z,24.70
2018-07-28T03:08:44.824Z,24.40
2018-07-28T03:10:48.973Z,24.20
2018-07-28T03:12:53.016Z,24.00
2018-07-28T03:14:56.992Z,23.70
2018-07-28T03:17:01.097Z,23.60
2018-07-28T03:19:05.362Z,23.50
2018-07-28T03:21:09.555Z,24.10
2018-07-28T03:23:13.763Z,24.60
2018-07-28T03:25:17.886Z,25.10
2018-07-28T03:27:21.986Z,25.40
2018-07-28T03:29:26.076Z,25.70
2018-07-28T03:31:30.096Z,25.80
2018-07-28T03:33:34.173Z,25.50
2018-07-28T03:35:38.246Z,25.20
2018-07-28T03:37:42.969Z,24.80
2018-07-28T03:39:46.901Z,24.50
2018-07-28T03:41:51.093Z,24.30
2018-07-28T03:43:55.275Z,24.00
2018-07-28T03:45:59.354Z,23.70
2018-07-28T03:48:03.396Z,23.60
2018-07-28T03:50:07.545Z,23.40
2018-07-28T03:52:11.810Z,23.40
2018-07-28T03:54:15.811Z,24.00
2018-07-28T03:56:19.947Z,24.60
2018-07-28T03:58:24.167Z,25.10
2018-07-28T04:00:28.202Z,25.50
2018-07-28T04:02:32.287Z,25.70
2018-07-28T04:04:36.260Z,25.70
2018-07-28T04:06:40.464Z,25.50
2018-07-28T04:08:44.498Z,24.90
2018-07-28T04:10:48.454Z,24.50
2018-07-28T04:14:56.185Z,23.90
2018-07-28T04:17:00.304Z,23.60
2018-07-28T04:19:04.507Z,23.40
2018-07-28T04:21:08.750Z,23.30
2018-07-28T04:23:12.855Z,23.10
2018-07-28T04:25:16.927Z,23.50
2018-07-28T04:27:21.028Z,24.30
2018-07-28T04:29:25.108Z,24.70
2018-07-28T04:31:29.726Z,24.90
2018-07-28T04:33:33.865Z,25.20
2018-07-28T04:35:37.891Z,25.30
2018-07-28T04:37:41.923Z,25.10
2018-07-28T04:39:45.983Z,24.90
2018-07-28T04:41:50.197Z,24.60
2018-07-28T04:43:54.315Z,24.50
2018-07-28T04:45:58.480Z,24.30
2018-07-28T04:48:02.751Z,24.30
2018-07-28T04:50:06.986Z,24.30
2018-07-28T04:52:12.168Z,24.30
2018-07-28T04:54:15.986Z,24.30
2018-07-28T04:56:19.856Z,24.50
2018-07-28T04:58:23.977Z,25.20
2018-07-28T05:00:28.880Z,26.10
2018-07-28T05:02:32.713Z,26.60
2018-07-28T05:04:37.710Z,27.10
2018-07-28T05:06:41.513Z,27.40
2018-07-28T05:10:49.439Z,27.50
2018-07-28T05:13:11.198Z,27.00
2018-07-28T05:15:34.172Z,26.40
2018-07-28T05:17:38.313Z,25.90
2018-07-28T05:19:42.419Z,25.50
2018-07-28T05:21:46.536Z,25.20
2018-07-28T05:23:50.614Z,25.20
2018-07-28T05:25:54.855Z,24.90
2018-07-28T05:27:59.294Z,24.60
2018-07-28T05:30:03.719Z,24.60
2018-07-28T05:32:07.762Z,25.00
2018-07-28T05:34:11.906Z,25.10
2018-07-28T05:36:15.930Z,24.90
2018-07-28T05:38:20.089Z,25.10
2018-07-28T05:40:24.146Z,25.30
2018-07-28T05:42:28.127Z,25.30
2018-07-28T05:44:32.115Z,24.60
2018-07-28T05:46:37.798Z,24.00
2018-07-28T05:48:42.079Z,23.80
2018-07-28T05:50:46.091Z,23.70
2018-07-28T05:52:50.225Z,23.60
2018-07-28T05:54:54.240Z,23.50
2018-07-28T05:56:58.408Z,23.40
2018-07-28T05:59:02.419Z,23.20
2018-07-28T06:01:06.991Z,23.10
2018-07-28T06:03:11.077Z,23.70
2018-07-28T06:05:15.164Z,24.20
2018-07-28T06:07:19.218Z,24.60
2018-07-28T06:09:23.407Z,24.90
2018-07-28T06:11:27.521Z,25.10
2018-07-28T06:15:35.415Z,24.80
2018-07-28T06:17:39.373Z,24.40
2018-07-28T06:19:43.574Z,24.00
2018-07-28T06:21:47.657Z,23.60
2018-07-28T06:23:51.688Z,23.40
2018-07-28T06:25:55.723Z,23.20
2018-07-28T06:27:59.865Z,23.20
2018-07-28T06:30:03.768Z,23.10
2018-07-28T06:32:08.947Z,23.10
2018-07-28T06:34:13.111Z,23.20
2018-07-28T06:36:17.449Z,23.90
2018-07-28T06:38:21.355Z,24.40
2018-07-28T06:40:25.389Z,24.70
2018-07-28T06:42:29.408Z,25.20
2018-07-28T06:44:33.369Z,25.30
2018-07-28T06:46:37.512Z,25.20
2018-07-28T06:48:41.475Z,24.80
2018-07-28T06:50:45.489Z,24.40
2018-07-28T06:52:49.509Z,24.20
2018-07-28T06:54:54.113Z,23.60
2018-07-28T06:56:58.314Z,23.50
2018-07-28T06:59:02.358Z,23.30
2018-07-28T07:01:06.425Z,23.40
2018-07-28T07:03:10.384Z,23.10
2018-07-28T07:05:14.479Z,23.20
2018-07-28T07:07:18.485Z,23.60
2018-07-28T07:09:22.403Z,24.70
2018-07-28T07:11:26.521Z,25.50
2018-07-28T07:13:30.416Z,26.10
2018-07-28T07:15:34.231Z,26.40
2018-07-28T07:17:38.137Z,26.60
2018-07-28T07:19:41.957Z,26.50
2018-07-28T07:21:45.961Z,26.40
2018-07-28T07:23:49.758Z,25.50
2018-07-28T07:25:53.715Z,24.80
2018-07-28T07:27:57.478Z,24.90
2018-07-28T07:30:01.248Z,24.90
2018-07-28T07:32:05.137Z,24.60
2018-07-28T07:34:08.896Z,24.50
2018-07-28T07:36:12.683Z,24.20
2018-07-28T07:38:16.490Z,24.50
2018-07-28T07:40:20.286Z,25.50
2018-07-28T07:42:24.277Z,26.20
2018-07-28T07:44:28.096Z,26.50
2018-07-28T07:46:31.854Z,26.70
2018-07-28T07:48:35.913Z,26.90
2018-07-28T07:50:39.711Z,26.70
2018-07-28T07:52:43.505Z,26.50
2018-07-28T07:54:47.274Z,26.50
2018-07-28T07:56:51.353Z,26.20
2018-07-28T07:58:55.190Z,26.30
2018-07-28T08:00:59.218Z,26.20
2018-07-28T08:03:03.212Z,26.00
2018-07-28T08:05:07.359Z,25.70
2018-07-28T08:07:11.488Z,25.60
2018-07-28T08:09:15.633Z,25.60
2018-07-28T08:11:20.339Z,25.90
2018-07-28T08:13:24.367Z,26.70
2018-07-28T08:15:28.850Z,27.10
2018-07-28T08:17:32.803Z,27.30
2018-07-28T08:19:36.615Z,27.00
2018-07-28T08:21:40.698Z,27.00
2018-07-28T08:23:44.691Z,27.40
2018-07-28T08:25:48.509Z,27.20
2018-07-28T08:27:52.306Z,27.00
2018-07-28T08:29:56.099Z,26.70
2018-07-28T08:32:00.144Z,26.40
2018-07-28T08:34:04.042Z,26.20
2018-07-28T08:36:07.897Z,26.20
2018-07-28T08:38:11.690Z,26.20
2018-07-28T08:40:15.534Z,26.30
2018-07-28T08:42:19.364Z,26.00
2018-07-28T08:44:24.365Z,26.10
2018-07-28T08:46:28.174Z,26.80
2018-07-28T08:48:31.924Z,27.10
2018-07-28T08:50:35.662Z,27.60
2018-07-28T08:52:39.551Z,27.40
2018-07-28T08:54:43.606Z,27.60
2018-07-28T08:56:49.214Z,26.90
2018-07-28T08:58:53.194Z,26.70
2018-07-28T09:00:56.954Z,26.00
2018-07-28T09:03:00.755Z,25.70
2018-07-28T09:05:05.081Z,25.90
2018-07-28T09:07:09.012Z,25.40
2018-07-28T09:09:13.198Z,25.10
2018-07-28T09:13:20.382Z,25.30
2018-07-28T09:17:27.761Z,26.10
2018-07-28T09:19:31.752Z,26.50
2018-07-28T09:21:35.525Z,27.10
2018-07-28T09:23:39.394Z,27.40
2018-07-28T09:25:43.247Z,27.30
2018-07-28T09:27:47.044Z,26.90
2018-07-28T09:29:50.999Z,26.70
2018-07-28T09:31:54.772Z,26.40
2018-07-28T09:33:58.554Z,26.00
2018-07-28T09:36:02.333Z,25.80
2018-07-28T09:38:06.564Z,25.20
2018-07-28T09:40:10.392Z,25.10
2018-07-28T09:42:14.229Z,24.70
2018-07-28T09:44:18.116Z,24.80
2018-07-28T09:46:23.092Z,25.20
2018-07-28T09:48:27.077Z,26.20
2018-07-28T09:50:30.840Z,27.20
2018-07-28T09:52:34.678Z,28.10
2018-07-28T09:54:38.491Z,28.40
2018-07-28T09:56:42.511Z,28.70
2018-07-28T09:58:46.298Z,29.00
2018-07-28T10:00:55.416Z,29.00
2018-07-28T10:02:59.160Z,28.70
2018-07-28T10:05:03.010Z,28.30
2018-07-28T10:07:06.781Z,27.70
2018-07-28T10:09:12.013Z,27.30
2018-07-28T10:11:15.909Z,27.20
2018-07-28T10:13:19.955Z,27.90
2018-07-28T10:15:24.012Z,27.80
2018-07-28T10:17:28.089Z,27.80
2018-07-28T10:19:32.315Z,28.20
2018-07-28T10:23:39.844Z,29.00
2018-07-28T10:25:43.808Z,29.30
2018-07-28T10:27:47.840Z,29.80
2018-07-28T10:29:51.941Z,29.80
2018-07-28T10:31:55.861Z,30.40
2018-07-28T10:34:00.873Z,30.70
2018-07-28T10:36:05.354Z,31.20
2018-07-28T10:38:09.348Z,31.00
2018-07-28T10:40:13.438Z,30.70
2018-07-28T10:42:17.958Z,31.00
2018-07-28T10:44:22.270Z,31.10
2018-07-28T10:46:26.972Z,30.70
2018-07-28T10:48:31.429Z,30.70
2018-07-28T10:50:35.593Z,30.20
2018-07-28T10:52:39.939Z,30.30
2018-07-28T10:54:46.069Z,31.20
2018-07-28T10:56:50.305Z,32.50
2018-07-28T10:58:54.389Z,33.80
2018-07-28T11:00:58.394Z,34.20
2018-07-28T11:03:03.288Z,34.40
2018-07-28T11:05:07.456Z,34.40
2018-07-28T11:07:11.617Z,34.50
2018-07-28T11:09:15.759Z,33.50
2018-07-28T11:11:20.256Z,33.90
2018-07-28T11:13:24.399Z,34.20
2018-07-28T11:15:28.414Z,33.30
2018-07-28T11:17:32.667Z,33.00
2018-07-28T11:19:37.187Z,33.30
2018-07-28T11:21:41.263Z,33.70
2018-07-28T11:24:01.445Z,34.30
2018-07-28T11:26:05.816Z,34.70
2018-07-28T11:28:09.959Z,34.70
2018-07-28T11:30:13.942Z,34.20
2018-07-28T11:32:29.276Z,34.60
2018-07-28T11:34:44.292Z,35.00
2018-07-28T11:36:59.156Z,34.90
2018-07-28T11:39:14.756Z,34.90
2018-07-28T11:41:30.064Z,34.80
2018-07-28T11:43:45.269Z,33.70
2018-07-28T11:45:49.469Z,32.90
2018-07-28T11:47:53.707Z,33.30
2018-07-28T11:49:57.962Z,34.20
2018-07-28T11:52:01.915Z,34.20
2018-07-28T11:54:06.217Z,35.00
2018-07-28T11:56:10.475Z,35.60
2018-07-28T11:58:14.714Z,36.10
2018-07-28T12:00:18.661Z,35.70
2018-07-28T12:02:22.880Z,35.60
2018-07-28T12:04:28.134Z,35.00
2018-07-28T12:06:32.095Z,33.90
2018-07-28T12:08:37.479Z,35.10
2018-07-28T12:10:41.648Z,35.20
2018-07-28T12:12:45.967Z,34.90
2018-07-28T12:14:49.819Z,35.10
2018-07-28T12:16:53.612Z,35.60
2018-07-28T12:18:57.672Z,35.30
2018-07-28T12:21:01.501Z,34.90
2018-07-28T12:23:05.289Z,34.40
2018-07-28T12:25:09.123Z,34.90
2018-07-28T12:27:13.200Z,34.70
2018-07-28T12:29:16.960Z,33.80
2018-07-28T12:31:20.741Z,34.40
2018-07-28T12:33:24.562Z,34.60
2018-07-28T12:35:28.361Z,33.40
2018-07-28T12:37:32.654Z,33.90
2018-07-28T12:39:36.482Z,33.30
2018-07-28T12:41:40.302Z,33.00
2018-07-28T12:43:44.116Z,33.10
2018-07-28T12:45:48.440Z,33.10
2018-07-28T12:47:52.251Z,32.40
2018-07-28T12:49:56.006Z,32.10
2018-07-28T12:52:01.176Z,32.90
2018-07-28T12:54:05.006Z,33.40
2018-07-28T12:56:08.842Z,33.90
2018-07-28T12:58:12.933Z,33.70
2018-07-28T13:00:16.935Z,34.10
2018-07-28T13:02:20.943Z,33.60
2018-07-28T13:04:24.943Z,34.00
2018-07-28T13:06:29.070Z,33.70
2018-07-28T13:08:33.022Z,34.20
2018-07-28T13:10:37.121Z,35.30
2018-07-28T13:12:41.510Z,34.50
2018-07-28T13:14:45.681Z,33.90
2018-07-28T13:16:49.729Z,33.10
2018-07-28T13:18:53.777Z,32.50
2018-07-28T13:20:57.857Z,32.30
2018-07-28T13:23:01.909Z,32.00
2018-07-28T13:25:05.810Z,31.60
2018-07-28T13:27:09.603Z,32.30
2018-07-28T13:29:13.406Z,32.90
2018-07-28T13:31:17.213Z,32.90
2018-07-28T13:33:21.022Z,32.20
2018-07-28T13:35:25.084Z,33.00
2018-07-28T13:37:29.071Z,33.40
2018-07-28T13:39:33.020Z,33.50
2018-07-28T13:41:36.959Z,33.20
2018-07-28T13:43:41.113Z,33.00
2018-07-28T13:45:45.194Z,32.80
2018-07-28T13:47:49.510Z,32.90
2018-07-28T13:49:53.521Z,32.30
2018-07-28T13:51:57.554Z,33.10
2018-07-28T13:54:01.556Z,33.20
2018-07-28T13:56:05.566Z,33.50
2018-07-28T14:00:15.392Z,33.50
2018-07-28T14:02:19.451Z,33.90
2018-07-28T14:04:23.430Z,33.70
2018-07-28T14:06:27.591Z,33.70
2018-07-28T14:08:31.627Z,33.20
2018-07-28T14:10:35.824Z,33.40
2018-07-28T14:12:40.065Z,33.10
2018-07-28T14:14:44.223Z,33.00
2018-07-28T14:16:49.671Z,32.80
2018-07-28T14:18:53.846Z,32.70
2018-07-28T14:20:58.051Z,32.80
2018-07-28T14:23:02.162Z,32.80
2018-07-28T14:25:06.903Z,32.70
2018-07-28T14:27:10.900Z,32.00
2018-07-28T14:29:14.991Z,31.40
2018-07-28T14:31:19.130Z,31.40
2018-07-28T14:33:23.365Z,31.40
2018-07-28T14:35:27.530Z,31.30
2018-07-28T14:37:31.653Z,30.80
2018-07-28T14:39:35.771Z,30.60
2018-07-28T14:41:40.026Z,31.40
2018-07-28T14:43:43.867Z,32.00
2018-07-28T14:45:47.699Z,32.50
2018-07-28T14:47:51.524Z,32.70
2018-07-28T14:49:55.488Z,33.00
2018-07-28T14:51:59.308Z,32.70
2018-07-28T14:54:03.143Z,31.60
2018-07-28T14:56:07.276Z,32.00
2018-07-28T14:58:11.150Z,31.90
2018-07-28T15:00:15.602Z,31.60
2018-07-28T15:02:19.588Z,31.30
2018-07-28T15:04:23.639Z,31.80
2018-07-28T15:06:27.632Z,31.80
2018-07-28T15:08:31.712Z,32.00
2018-07-28T15:10:35.896Z,32.00
2018-07-28T15:12:40.131Z,31.60
2018-07-28T15:14:44.200Z,32.10
2018-07-28T15:16:48.257Z,32.60
2018-07-28T15:18:52.422Z,32.50
2018-07-28T15:20:56.425Z,32.40
2018-07-28T15:23:00.534Z,32.30
2018-07-28T15:25:04.960Z,32.20
2018-07-28T15:27:08.937Z,32.20
2018-07-28T15:29:13.103Z,31.90
2018-07-28T15:31:17.314Z,31.40
2018-07-28T15:33:21.353Z,30.60
2018-07-28T15:35:25.383Z,30.40
2018-07-28T15:37:29.475Z,29.90
2018-07-28T15:39:33.578Z,30.20
2018-07-28T15:41:37.706Z,30.90
2018-07-28T15:43:41.832Z,31.40
2018-07-28T15:47:49.724Z,31.60
2018-07-28T15:49:53.934Z,31.60
2018-07-28T15:51:58.141Z,31.80
2018-07-28T15:54:01.958Z,32.10
2018-07-28T15:56:05.836Z,32.30
2018-07-28T15:58:09.625Z,32.30
2018-07-28T16:00:14.671Z,32.10
2018-07-28T16:02:18.984Z,31.80
2018-07-28T16:04:23.133Z,31.50
2018-07-28T16:06:27.507Z,31.20
2018-07-28T16:08:31.322Z,30.70
2018-07-28T16:10:35.665Z,30.30
2018-07-28T16:12:39.860Z,30.00
2018-07-28T16:14:43.896Z,29.30
2018-07-28T16:16:47.654Z,29.40
2018-07-28T16:18:51.396Z,29.40
2018-07-28T16:20:55.683Z,29.00
2018-07-28T16:22:59.443Z,28.40
2018-07-28T16:25:03.353Z,28.00
2018-07-28T16:27:07.229Z,27.80
2018-07-28T16:29:11.162Z,27.60
2018-07-28T16:33:18.602Z,27.20
2018-07-28T16:35:22.506Z,27.10
2018-07-28T16:37:26.583Z,27.30
2018-07-28T16:39:30.628Z,28.00
2018-07-28T16:43:38.097Z,28.90
2018-07-28T16:45:43.080Z,29.10
2018-07-28T16:47:46.980Z,29.30
2018-07-28T16:49:50.982Z,29.30
2018-07-28T16:51:54.795Z,28.90
2018-07-28T16:53:58.609Z,29.20
2018-07-28T16:56:02.546Z,29.10
2018-07-28T16:58:06.512Z,29.20
2018-07-28T17:00:10.562Z,28.70
2018-07-28T17:02:14.401Z,28.50
2018-07-28T17:04:18.197Z,28.30
2018-07-28T17:06:22.060Z,28.10
2018-07-28T17:08:25.919Z,27.80
2018-07-28T17:10:29.889Z,27.50
2018-07-28T17:12:33.651Z,27.40
2018-07-28T17:14:37.463Z,27.10
2018-07-28T17:16:41.294Z,27.30
2018-07-28T17:18:45.234Z,27.60
2018-07-28T17:20:49.364Z,27.90
2018-07-28T17:22:53.568Z,28.10
2018-07-28T17:24:57.597Z,28.20
2018-07-28T17:27:01.739Z,28.20
2018-07-28T17:29:05.895Z,28.30
2018-07-28T17:31:10.112Z,28.50
2018-07-28T17:33:14.169Z,28.50
2018-07-28T17:35:18.439Z,28.20
2018-07-28T17:37:22.761Z,28.00
2018-07-28T17:39:27.011Z,27.60
2018-07-28T17:41:31.342Z,27.00
2018-07-28T17:43:35.469Z,26.70
2018-07-28T17:45:39.573Z,26.40
2018-07-28T17:47:44.475Z,26.20
2018-07-28T17:49:48.561Z,26.10
2018-07-28T17:51:52.613Z,25.90
2018-07-28T17:53:57.001Z,26.10
2018-07-28T17:56:01.338Z,26.60
2018-07-28T17:58:05.552Z,27.30
2018-07-28T18:00:09.935Z,27.70
2018-07-28T18:02:13.786Z,27.70
2018-07-28T18:04:18.377Z,27.90
2018-07-28T18:06:22.226Z,27.90
2018-07-28T18:08:26.247Z,27.90
2018-07-28T18:10:30.550Z,27.70
2018-07-28T18:12:34.649Z,27.30
2018-07-28T18:14:38.976Z,26.90
2018-07-28T18:16:43.238Z,26.50
2018-07-28T18:18:47.419Z,26.10
2018-07-28T18:20:51.451Z,25.80
2018-07-28T18:22:55.406Z,25.50
2018-07-28T18:24:59.578Z,25.30
2018-07-28T18:27:03.826Z,25.10
2018-07-28T18:29:07.996Z,25.10
2018-07-28T18:31:12.158Z,25.70
2018-07-28T18:33:16.612Z,26.30
2018-07-28T18:35:20.812Z,26.70
2018-07-28T18:37:24.957Z,26.90
2018-07-28T18:39:29.112Z,26.80
2018-07-28T18:41:33.252Z,26.90
2018-07-28T18:45:41.154Z,26.60
2018-07-28T18:47:45.906Z,26.10
2018-07-28T18:49:49.948Z,25.50
2018-07-28T18:51:54.411Z,25.10
2018-07-28T18:53:58.531Z,24.90
2018-07-28T18:56:02.823Z,24.50
2018-07-28T18:58:07.403Z,24.40
2018-07-28T19:00:11.996Z,24.10
2018-07-28T19:02:16.275Z,24.00
2018-07-28T19:04:20.568Z,24.30
2018-07-28T19:06:24.934Z,25.10
2018-07-28T19:08:29.495Z,25.50
2018-07-28T19:10:33.735Z,25.70
2018-07-28T19:12:43.150Z,26.00
2018-07-28T19:14:47.465Z,26.00
2018-07-28T19:16:51.732Z,25.90
2018-07-28T19:19:00.831Z,25.50
2018-07-28T19:21:04.961Z,25.00
2018-07-28T19:23:14.083Z,24.50
2018-07-28T19:25:18.221Z,24.10
2018-07-28T19:27:22.514Z,23.70
2018-07-28T19:29:31.731Z,23.40
2018-07-28T19:31:36.177Z,23.20
2018-07-28T19:33:40.225Z,23.00
2018-07-28T19:35:49.308Z,22.90
2018-07-28T19:37:53.750Z,23.40
2018-07-28T19:39:58.893Z,24.00
2018-07-28T19:42:09.335Z,24.50
2018-07-28T19:44:14.807Z,24.80
2018-07-28T19:46:18.901Z,25.00
2018-07-28T19:48:22.926Z,25.00
2018-07-28T19:50:27.246Z,24.70
2018-07-28T19:52:31.782Z,24.30
2018-07-28T19:54:35.771Z,23.80
2018-07-28T19:56:39.910Z,23.30
2018-07-28T19:58:44.420Z,23.00
2018-07-28T20:00:48.624Z,22.80
2018-07-28T20:02:52.695Z,22.50
2018-07-28T20:04:56.874Z,22.40
2018-07-28T20:07:01.200Z,22.20
2018-07-28T20:09:07.109Z,22.10
2018-07-28T20:11:11.147Z,22.80
2018-07-28T20:13:15.401Z,23.50
2018-07-28T20:15:19.655Z,23.90
2018-07-28T20:17:23.691Z,24.20
2018-07-28T20:19:27.649Z,24.20
2018-07-28T20:21:31.698Z,24.00
2018-07-28T20:23:36.049Z,23.40
2018-07-28T20:25:40.309Z,23.10
2018-07-28T20:27:44.550Z,22.60
2018-07-28T20:29:48.520Z,22.30
2018-07-28T20:31:52.540Z,22.00
2018-07-28T20:33:56.905Z,21.80
2018-07-28T20:36:01.330Z,21.60
2018-07-28T20:38:05.559Z,21.50
2018-07-28T20:40:09.836Z,21.40
2018-07-28T20:42:14.316Z,21.70
2018-07-28T20:44:18.613Z,22.40
2018-07-28T20:46:22.660Z,23.00
2018-07-28T20:48:26.660Z,23.40
2018-07-28T20:50:30.685Z,23.60
2018-07-28T20:52:35.616Z,23.70
2018-07-28T20:54:39.810Z,23.30
2018-07-28T20:56:43.786Z,22.80
2018-07-28T20:58:48.049Z,22.40
2018-07-28T21:00:52.142Z,22.00
2018-07-28T21:02:56.273Z,21.60
2018-07-28T21:05:00.468Z,21.40
2018-07-28T21:07:05.175Z,21.20
2018-07-28T21:11:13.610Z,20.90
2018-07-28T21:13:17.712Z,20.80
2018-07-28T21:15:21.864Z,21.30
2018-07-28T21:17:26.198Z,21.90
2018-07-28T21:19:30.644Z,22.50
2018-07-28T21:21:34.908Z,22.80
2018-07-28T21:23:39.292Z,22.70
2018-07-28T21:25:43.266Z,22.60
2018-07-28T21:27:47.301Z,22.10
2018-07-28T21:29:51.530Z,21.70
2018-07-28T21:31:55.675Z,21.40
2018-07-28T21:33:59.833Z,21.10
2018-07-28T21:38:07.906Z,20.60
2018-07-28T21:40:12.195Z,20.40
2018-07-28T21:42:16.334Z,20.30
2018-07-28T21:44:20.453Z,20.10
2018-07-28T21:46:24.600Z,20.00
2018-07-28T21:48:28.603Z,20.60
2018-07-28T21:50:32.992Z,21.00
2018-07-28T21:52:37.071Z,21.40
2018-07-28T21:54:41.152Z,21.70
2018-07-28T21:56:45.139Z,22.00
2018-07-28T21:58:49.209Z,21.80
2018-07-28T22:01:06.850Z,21.40
2018-07-28T22:03:10.999Z,21.00
2018-07-28T22:05:15.111Z,20.70
2018-07-28T22:07:19.082Z,20.40
2018-07-28T22:09:23.107Z,20.20
2018-07-28T22:11:27.106Z,20.10
2018-07-28T22:13:31.290Z,19.90
2018-07-28T22:15:35.357Z,19.70
2018-07-28T22:17:39.354Z,19.60
2018-07-28T22:19:43.543Z,19.60
2018-07-28T22:21:47.709Z,20.40
2018-07-28T22:23:51.782Z,21.00
2018-07-28T22:25:55.818Z,21.30
2018-07-28T22:28:00.234Z,21.70
2018-07-28T22:30:04.300Z,21.50
2018-07-28T22:32:08.652Z,20.90
2018-07-28T22:34:12.902Z,20.50
2018-07-28T22:36:17.064Z,20.30
2018-07-28T22:38:21.280Z,19.90
2018-07-28T22:40:25.266Z,19.70
2018-07-28T22:42:40.367Z,19.50
2018-07-28T22:44:44.602Z,19.40
2018-07-28T22:46:48.715Z,19.20
2018-07-28T22:48:52.793Z,19.20
2018-07-28T22:50:56.782Z,19.00
2018-07-28T22:53:00.926Z,19.20
2018-07-28T22:55:05.140Z,19.50
2018-07-28T22:57:09.620Z,20.00
2018-07-28T22:59:13.642Z,20.30
2018-07-28T23:01:17.747Z,20.40
2018-07-28T23:03:21.919Z,20.40
2018-07-28T23:05:26.195Z,20.30
2018-07-28T23:09:33.929Z,19.70
2018-07-28T23:11:38.093Z,19.40
2018-07-28T23:13:42.271Z,19.10
2018-07-28T23:15:46.692Z,19.00
2018-07-28T23:17:50.882Z,18.80
2018-07-28T23:19:55.316Z,18.70
2018-07-28T23:21:59.387Z,18.50
2018-07-28T23:24:03.519Z,18.30
2018-07-28T23:26:07.599Z,18.40
2018-07-28T23:28:11.996Z,18.80
2018-07-28T23:30:16.184Z,19.30
2018-07-28T23:32:20.470Z,19.80
2018-07-28T23:34:24.615Z,20.20
2018-07-28T23:36:28.913Z,20.10
2018-07-28T23:38:33.070Z,19.80
2018-07-28T23:40:37.397Z,19.30
2018-07-28T23:42:42.885Z,19.00
2018-07-28T23:44:47.011Z,18.70
2018-07-28T23:46:51.355Z,18.40
2018-07-28T23:48:56.036Z,18.30
2018-07-28T23:51:00.264Z,18.10
2018-07-28T23:53:04.558Z,18.00
2018-07-28T23:55:08.822Z,18.00
2018-07-28T23:57:13.193Z,17.90
2018-07-28T23:59:17.411Z,17.70
